Time;durP1;ratioP1;P1;durP2;ratioP2;P2;SDS_P1;SDS_P2;PMS_P1;PMS_P2;Temp;Humidity;BMP_temperature;BMP_pressure;BME280_temperature;BME280_humidity;BME280_pressure;Samples;Min_cycle;Max_cycle;Signal;HPM_P1;HPM_P2
2023/09/18 12:24:32;;;;;;;4.53;1.73;;;;;;;18.04;93.77;96143.75;2111554;27;21261;-69
2023/09/18 12:26:48;;;;;;;3.47;1.75;;;;;;;18.10;92.48;96148.50;2085943;28;20573;-71
2023/09/18 12:27:53;;;;;;;2.72;1.23;;;;;;;18.19;93.29;96146.06;2079479;28;20565;-72
2023/09/18 12:28:55;;;;;;;6.88;1.40;;;;;;;18.31;92.54;96139.75;2080692;28;20205;-71
2023/09/18 12:29:59;;;;;;;7.22;1.60;;;;;;;18.38;92.53;96143.53;2085085;28;20204;-71
2023/09/18 12:31:04;;;;;;;6.85;1.70;;;;;;;18.32;92.04;96141.44;2073118;28;20268;-72
2023/09/18 12:32:10;;;;;;;6.55;1.30;;;;;;;18.40;90.77;96136.34;2072572;28;20201;-72
2023/09/18 12:33:11;;;;;;;4.55;1.50;;;;;;;18.42;90.68;96142.34;2075724;28;20289;-71
2023/09/18 12:34:21;;;;;;;7.32;1.50;;;;;;;18.55;90.44;96142.13;2076015;28;20201;-71
2023/09/18 12:35:25;;;;;;;12.18;6.88;;;;;;;18.68;88.94;96144.56;2072472;28;20672;-71
2023/09/18 12:36:27;;;;;;;3.28;1.30;;;;;;;18.67;88.98;96142.88;2072745;28;20789;-71
2023/09/18 12:37:28;;;;;;;4.05;1.50;;;;;;;18.79;89.48;96142.81;2073413;28;20208;-71
2023/09/18 12:38:30;;;;;;;2.85;1.05;;;;;;;18.83;87.51;96141.56;2074228;28;20803;-72
2023/09/18 12:39:33;;;;;;;4.40;1.55;;;;;;;18.85;87.51;96145.75;2075665;28;20201;-70
2023/09/18 12:40:34;;;;;;;4.63;1.52;;;;;;;18.84;86.85;96156.47;2074715;28;20430;-70
2023/09/18 12:41:37;;;;;;;4.05;1.48;;;;;;;18.87;86.71;96148.28;2070929;28;20202;-71
2023/09/18 12:42:40;;;;;;;6.28;1.60;;;;;;;18.98;88.00;96142.94;2073076;28;20209;-68
2023/09/18 12:43:43;;;;;;;4.88;1.17;;;;;;;19.02;86.24;96141.69;2074973;28;20232;-69
2023/09/18 12:44:50;;;;;;;5.47;1.70;;;;;;;19.00;86.34;96140.16;2072670;28;20200;-68
2023/09/18 12:45:52;;;;;;;6.40;1.75;;;;;;;18.96;86.45;96154.59;2072392;28;20225;-68
2023/09/18 12:46:54;;;;;;;3.85;1.30;;;;;;;18.90;86.11;96163.91;2073419;28;20553;-68
2023/09/18 12:47:57;;;;;;;3.95;1.55;;;;;;;18.75;86.82;96182.75;2074682;28;20232;-69
2023/09/18 12:50:07;;;;;;;5.10;1.35;;;;;;;18.79;87.30;96166.59;2101821;27;20579;-68
2023/09/18 12:51:09;;;;;;;3.60;1.55;;;;;;;18.81;87.27;96167.31;2092235;28;20219;-67
2023/09/18 12:52:10;;;;;;;7.05;1.42;;;;;;;18.84;86.87;96162.63;2087247;28;20196;-68
2023/09/18 12:53:14;;;;;;;5.97;1.55;;;;;;;18.93;86.86;96163.63;2088742;28;20196;-68
2023/09/18 12:54:16;;;;;;;6.22;1.50;;;;;;;18.96;86.55;96162.53;2091308;28;20713;-68
2023/09/18 12:55:36;;;;;;;4.97;1.20;;;;;;;18.80;84.98;96158.53;2087531;28;20627;-68
2023/09/18 12:56:41;;;;;;;5.72;1.20;;;;;;;18.75;86.21;96144.88;2082049;28;20307;-68
2023/09/18 12:57:43;;;;;;;5.40;1.42;;;;;;;18.81;85.48;96152.28;2082636;28;20615;-68
2023/09/18 12:58:45;;;;;;;3.22;1.20;;;;;;;18.93;85.74;96138.03;2079232;28;20197;-68
2023/09/18 13:00:11;;;;;;;3.47;1.05;;;;;;;18.90;85.13;96140.09;2082453;28;20544;-67
2023/09/18 13:01:13;;;;;;;5.80;1.20;;;;;;;18.92;85.86;96143.47;2088163;28;20220;-69
2023/09/18 13:02:17;;;;;;;4.00;1.23;;;;;;;18.99;85.79;96147.25;2091028;28;20195;-69
2023/09/18 13:03:19;;;;;;;3.92;1.20;;;;;;;18.92;85.13;96133.72;2092902;28;20211;-69
2023/09/18 13:04:22;;;;;;;5.40;1.60;;;;;;;18.85;84.53;96134.34;2091459;28;20260;-69
2023/09/18 13:06:25;;;;;;;3.83;1.35;;;;;;;18.91;85.74;96123.28;2084875;28;20564;-68
2023/09/18 13:07:27;;;;;;;3.83;1.30;;;;;;;19.04;85.36;96128.34;2082767;28;20249;-68
2023/09/18 13:08:28;;;;;;;7.30;1.10;;;;;;;19.05;85.62;96130.00;2082357;28;20216;-70
2023/09/18 13:09:30;;;;;;;3.60;1.20;;;;;;;18.98;85.05;96123.56;2083360;28;20705;-70
2023/09/18 13:10:51;;;;;;;3.75;1.35;;;;;;;19.10;85.78;96125.16;2082095;28;20227;-70
2023/09/18 13:11:54;;;;;;;3.88;1.10;;;;;;;19.25;85.58;96123.81;2076664;28;20259;-70
2023/09/18 13:12:55;;;;;;;4.65;1.40;;;;;;;19.24;84.53;96126.59;2074582;28;20305;-70
2023/09/18 13:13:58;;;;;;;4.97;1.42;;;;;;;19.25;84.03;96123.81;2070996;28;20205;-71
2023/09/18 13:15:08;;;;;;;3.20;1.30;;;;;;;19.29;84.62;96127.03;2071397;28;20198;-70
2023/09/18 13:16:11;;;;;;;4.55;1.50;;;;;;;19.42;83.93;96134.72;2073708;28;20222;-70
2023/09/18 13:17:12;;;;;;;6.70;1.00;;;;;;;19.45;83.95;96136.25;2074877;28;20201;-70
2023/09/18 13:18:15;;;;;;;4.35;1.77;;;;;;;19.28;83.74;96143.03;2074714;28;20645;-70
2023/09/18 13:19:17;;;;;;;8.43;1.65;;;;;;;19.35;83.75;96122.97;2071021;28;20208;-70
2023/09/18 13:20:26;;;;;;;4.00;1.30;;;;;;;19.41;83.12;96127.72;2073829;28;20725;-70
2023/09/18 13:21:27;;;;;;;2.80;1.30;;;;;;;19.45;83.25;96117.72;2074678;28;20221;-70
2023/09/18 13:22:29;;;;;;;11.00;1.40;;;;;;;19.51;82.54;96115.34;2071028;28;20202;-70
2023/09/18 13:23:31;;;;;;;4.50;1.42;;;;;;;19.44;80.90;96116.88;2071023;28;20201;-70
2023/09/18 13:24:33;;;;;;;2.67;1.00;;;;;;;19.35;81.60;96113.25;2074923;28;20352;-70
2023/09/18 13:25:38;;;;;;;5.03;1.50;;;;;;;19.47;81.79;96119.25;2073427;28;20276;-70
2023/09/18 13:26:39;;;;;;;5.22;1.20;;;;;;;19.47;80.87;96111.31;2075345;28;20211;-70
2023/09/18 13:27:41;;;;;;;4.25;1.60;;;;;;;19.40;81.05;96118.09;2073589;28;20202;-70
2023/09/18 13:28:42;;;;;;;4.20;1.20;;;;;;;19.46;81.50;96114.09;2074152;28;20232;-70
2023/09/18 13:29:44;;;;;;;5.53;1.30;;;;;;;19.51;81.58;96110.06;2074366;28;20208;-70
2023/09/18 13:30:46;;;;;;;6.35;2.28;;;;;;;19.64;81.36;96112.47;2072572;28;20229;-70
2023/09/18 13:31:47;;;;;;;4.35;1.63;;;;;;;19.59;80.82;96117.31;2074498;28;20201;-70
2023/09/18 13:32:49;;;;;;;4.30;1.17;;;;;;;19.53;80.87;96139.06;2072900;28;20198;-70
2023/09/18 13:33:52;;;;;;;4.53;1.20;;;;;;;19.62;81.26;96127.63;2070580;28;20198;-70
2023/09/18 13:34:54;;;;;;;3.30;1.02;;;;;;;19.59;80.96;96130.53;2072986;28;20190;-70
2023/09/18 13:35:55;;;;;;;4.40;0.95;;;;;;;19.54;81.18;96127.47;2073992;28;20224;-70
2023/09/18 13:36:57;;;;;;;2.70;1.10;;;;;;;19.40;81.41;96132.19;2074770;28;20204;-70
2023/09/18 13:37:59;;;;;;;8.50;1.27;;;;;;;19.49;80.93;96138.50;2075636;28;20201;-70
2023/09/18 13:39:00;;;;;;;2.65;1.00;;;;;;;19.51;81.14;96131.22;2075587;28;20567;-70
2023/09/18 13:40:06;;;;;;;5.85;1.38;;;;;;;19.60;81.09;96134.88;2074511;28;20213;-70
2023/09/18 13:41:07;;;;;;;4.85;1.30;;;;;;;19.65;80.59;96129.19;2070360;28;20226;-70
2023/09/18 13:42:09;;;;;;;2.58;1.05;;;;;;;19.76;80.17;96121.09;2071055;28;20764;-70
2023/09/18 13:43:14;;;;;;;8.57;1.50;;;;;;;19.78;80.73;96111.19;2077094;28;20657;-70
2023/09/18 13:44:16;;;;;;;4.63;1.20;;;;;;;19.92;80.56;96109.16;2070579;28;20243;-71
2023/09/18 13:45:23;;;;;;;3.80;1.20;;;;;;;20.00;80.12;96112.78;2072253;28;20201;-70
2023/09/18 13:46:24;;;;;;;2.60;1.15;;;;;;;19.95;79.01;96115.00;2073720;28;20619;-70
2023/09/18 13:47:29;;;;;;;4.70;1.05;;;;;;;19.94;79.31;96108.03;2074577;28;20189;-70
2023/09/18 13:48:30;;;;;;;3.28;1.10;;;;;;;19.79;77.96;96109.41;2076639;28;20201;-70
2023/09/18 13:49:32;;;;;;;3.65;1.23;;;;;;;19.85;78.49;96116.81;2070612;28;20198;-70
2023/09/18 13:50:35;;;;;;;6.90;1.35;;;;;;;19.87;78.56;96114.84;2073909;28;21047;-70
2023/09/18 13:51:36;;;;;;;7.57;1.20;;;;;;;19.96;78.96;96114.03;2072967;28;20222;-71
2023/09/18 13:52:38;;;;;;;2.55;1.20;;;;;;;19.95;78.33;96112.34;2071736;28;20213;-70
2023/09/18 13:53:41;;;;;;;4.80;1.23;;;;;;;19.87;79.37;96107.75;2073068;28;20225;-70
2023/09/18 13:54:42;;;;;;;3.92;1.25;;;;;;;19.72;79.29;96125.84;2071997;28;20284;-70
2023/09/18 13:55:50;;;;;;;4.88;1.10;;;;;;;19.70;79.44;96127.78;2071804;28;20582;-71
2023/09/18 13:56:52;;;;;;;2.95;1.27;;;;;;;19.65;79.80;96123.88;2071694;28;20198;-71
2023/09/18 13:57:56;;;;;;;9.27;1.52;;;;;;;19.68;79.90;96137.69;2074766;28;20205;-71
2023/09/18 13:58:58;;;;;;;7.78;1.30;;;;;;;19.58;79.95;96136.84;2071646;28;20193;-71
2023/09/18 14:00:09;;;;;;;4.00;1.20;;;;;;;19.67;80.10;96117.47;2072005;28;20293;-71
2023/09/18 14:01:10;;;;;;;3.90;1.60;;;;;;;19.75;79.29;96098.22;2070004;28;20287;-71
2023/09/18 14:02:13;;;;;;;4.82;1.20;;;;;;;19.81;79.31;96097.69;2070702;28;20643;-71
2023/09/18 14:03:17;;;;;;;3.35;1.20;;;;;;;19.75;79.11;96096.41;2074435;28;20556;-71
2023/09/18 14:04:22;;;;;;;2.95;1.30;;;;;;;19.87;78.93;96096.31;2074272;28;20787;-72
2023/09/18 14:05:23;;;;;;;4.13;1.15;;;;;;;19.93;78.49;96106.34;2069801;28;20194;-71
2023/09/18 14:06:25;;;;;;;4.38;1.15;;;;;;;19.94;78.40;96105.38;2072570;28;20644;-71
2023/09/18 14:07:29;;;;;;;6.70;1.25;;;;;;;19.94;78.83;96102.72;2072834;28;20194;-72
2023/09/18 14:08:30;;;;;;;8.57;1.95;;;;;;;19.93;78.48;96094.94;2071842;28;20235;-71
2023/09/18 14:09:32;;;;;;;5.55;1.50;;;;;;;19.88;78.94;96092.69;2075058;28;20225;-72
2023/09/18 14:10:34;;;;;;;6.72;1.20;;;;;;;19.96;79.09;96090.19;2070229;28;20387;-71
2023/09/18 14:11:37;;;;;;;4.53;1.85;;;;;;;20.01;78.60;96097.69;2070386;28;20281;-72
2023/09/18 14:12:40;;;;;;;5.20;1.58;;;;;;;19.96;78.75;96099.94;2073929;28;20208;-72
2023/09/18 14:13:42;;;;;;;6.32;1.17;;;;;;;19.87;77.62;96091.00;2074160;28;20197;-72
2023/09/18 14:14:44;;;;;;;3.47;1.20;;;;;;;19.83;78.58;96101.06;2072938;28;20205;-72
2023/09/18 14:15:45;;;;;;;4.80;1.55;;;;;;;19.95;79.25;96093.81;2069939;28;20657;-73
2023/09/18 14:16:53;;;;;;;4.68;1.10;;;;;;;19.91;78.95;96097.72;2071789;28;20633;-71
2023/09/18 14:17:58;;;;;;;3.85;1.30;;;;;;;19.95;78.19;96093.81;2068264;28;20210;-71
2023/09/18 14:19:00;;;;;;;3.78;1.30;;;;;;;20.13;78.74;96091.28;2069226;28;20367;-71
2023/09/18 14:20:06;;;;;;;5.40;1.15;;;;;;;20.07;77.66;96086.53;2065053;28;20702;-71
2023/09/18 14:21:08;;;;;;;3.33;1.58;;;;;;;20.25;77.21;96088.47;2065160;28;20360;-71
2023/09/18 14:22:10;;;;;;;4.78;1.30;;;;;;;20.19;77.11;96082.75;2070031;28;20224;-71
2023/09/18 14:23:11;;;;;;;5.00;1.52;;;;;;;20.47;77.18;96092.63;2064914;28;20203;-71
2023/09/18 14:24:13;;;;;;;3.67;1.33;;;;;;;20.59;77.05;96074.72;2069144;28;20267;-71
2023/09/18 14:25:15;;;;;;;4.50;1.27;;;;;;;20.80;76.06;96082.50;2064997;28;20834;-71
2023/09/18 14:26:16;;;;;;;2.45;1.05;;;;;;;20.60;76.30;96090.47;2065030;28;20264;-71
2023/09/18 14:27:22;;;;;;;3.10;1.20;;;;;;;20.45;76.35;96081.31;2065000;28;20202;-71
2023/09/18 14:28:23;;;;;;;1.83;1.02;;;;;;;20.73;76.79;96079.56;2067427;28;20678;-72
2023/09/18 14:29:26;;;;;;;2.63;0.95;;;;;;;21.13;75.64;96085.56;2067583;28;20193;-71
2023/09/18 14:30:31;;;;;;;6.85;1.90;;;;;;;21.40;74.22;96076.72;2066666;28;20230;-71
2023/09/18 14:31:32;;;;;;;5.93;1.35;;;;;;;21.27;73.62;96082.38;2068586;28;20217;-72
2023/09/18 14:32:36;;;;;;;4.28;1.35;;;;;;;21.49;72.92;96075.81;2064740;28;20194;-72
2023/09/18 14:33:40;;;;;;;3.55;1.10;;;;;;;21.56;72.69;96085.88;2067833;28;20198;-72
2023/09/18 14:34:42;;;;;;;3.78;1.20;;;;;;;21.91;71.78;96077.06;2068228;28;20248;-72
2023/09/18 14:35:43;;;;;;;2.97;1.20;;;;;;;22.09;70.62;96084.19;2068334;28;20681;-72
2023/09/18 14:36:45;;;;;;;2.10;0.90;;;;;;;22.10;70.41;96085.84;2068946;28;20198;-71
2023/09/18 14:37:50;;;;;;;3.25;1.00;;;;;;;21.95;70.68;96077.59;2068282;28;20252;-72
2023/09/18 14:38:51;;;;;;;4.65;1.30;;;;;;;22.04;71.47;96068.69;2068359;28;20228;-72
2023/09/18 14:39:53;;;;;;;3.22;1.27;;;;;;;21.99;70.27;96066.50;2069311;28;20284;-72
2023/09/18 14:41:00;;;;;;;7.40;1.00;;;;;;;21.87;71.57;96072.22;2068400;28;20641;-71
2023/09/18 14:42:02;;;;;;;9.05;1.30;;;;;;;21.92;71.60;96064.63;2068634;28;20751;-72
2023/09/18 14:43:05;;;;;;;10.60;1.35;;;;;;;21.79;71.58;96059.69;2069082;28;20674;-73
2023/09/18 14:44:11;;;;;;;2.70;0.80;;;;;;;21.72;70.87;96054.13;2068628;28;20202;-72
2023/09/18 14:45:12;;;;;;;2.45;1.08;;;;;;;21.98;70.76;96048.06;2068361;28;20202;-71
2023/09/18 14:46:14;;;;;;;2.30;0.85;;;;;;;21.84;71.08;96060.06;2064225;28;20276;-72
2023/09/18 14:47:16;;;;;;;4.07;1.17;;;;;;;21.94;70.71;96062.63;2066873;28;20233;-71
2023/09/18 14:48:24;;;;;;;3.33;1.13;;;;;;;21.95;70.34;96051.00;2067124;28;20244;-71
2023/09/18 14:49:27;;;;;;;3.60;1.02;;;;;;;21.71;71.75;96057.78;2067812;28;20194;-71
2023/09/18 14:50:29;;;;;;;5.38;1.33;;;;;;;21.49;72.83;96049.25;2065815;28;20205;-71
2023/09/18 14:51:32;;;;;;;6.07;1.95;;;;;;;21.73;72.73;96052.34;2067069;28;20286;-71
2023/09/18 14:52:33;;;;;;;5.70;1.30;;;;;;;21.50;72.82;96042.97;2071358;28;20198;-71
2023/09/18 14:53:35;;;;;;;5.13;1.58;;;;;;;21.87;72.40;96050.97;2064879;28;20190;-72
2023/09/18 14:54:37;;;;;;;6.38;1.40;;;;;;;22.20;71.46;96041.41;2066721;28;20568;-71
2023/09/18 14:55:40;;;;;;;3.00;1.45;;;;;;;22.31;71.00;96041.13;2067259;28;20206;-71
2023/09/18 14:56:42;;;;;;;4.07;1.17;;;;;;;22.23;70.48;96032.28;2068114;28;20198;-72
2023/09/18 14:57:43;;;;;;;3.45;1.50;;;;;;;22.18;70.63;96038.06;2069526;28;20198;-71
2023/09/18 14:58:45;;;;;;;7.78;1.10;;;;;;;21.94;69.89;96031.59;2068352;28;20244;-73
2023/09/18 14:59:47;;;;;;;5.22;1.60;;;;;;;21.69;69.93;96049.97;2067547;28;20301;-74
2023/09/18 15:00:49;;;;;;;8.98;1.63;;;;;;;21.89;68.73;96031.22;2066120;28;20320;-74
2023/09/18 15:01:51;;;;;;;3.05;1.10;;;;;;;22.18;69.02;96030.94;2066013;28;20205;-74
2023/09/18 15:02:52;;;;;;;5.78;1.25;;;;;;;22.29;69.16;96039.63;2066767;28;20222;-73
2023/09/18 15:03:54;;;;;;;7.95;1.20;;;;;;;22.25;69.00;96038.28;2065941;28;20209;-74
2023/09/18 15:04:56;;;;;;;5.68;1.48;;;;;;;22.32;69.25;96026.00;2069497;28;20281;-73
2023/09/18 15:05:58;;;;;;;3.47;1.08;;;;;;;22.15;69.59;96028.56;2067616;28;20229;-73
2023/09/18 15:07:00;;;;;;;1.83;0.90;;;;;;;22.20;69.97;96021.97;2067705;28;20249;-73
2023/09/18 15:08:01;;;;;;;6.25;1.40;;;;;;;22.30;70.08;96023.50;2064587;28;20205;-73
2023/09/18 15:09:03;;;;;;;5.13;1.00;;;;;;;22.56;68.88;96028.00;2065076;28;20256;-73
2023/09/18 15:10:05;;;;;;;2.80;1.10;;;;;;;22.98;68.08;96011.22;2064591;28;20210;-74
2023/09/18 15:11:07;;;;;;;7.40;1.25;;;;;;;22.97;67.93;96017.53;2068252;28;20222;-73
2023/09/18 15:12:08;;;;;;;2.90;0.80;;;;;;;23.25;68.07;96017.31;2068841;28;20195;-73
2023/09/18 15:13:10;;;;;;;2.00;0.90;;;;;;;22.94;68.16;96017.88;2064657;28;20549;-73
2023/09/18 15:14:11;;;;;;;5.90;1.15;;;;;;;22.56;69.13;96014.69;2068936;28;20198;-74
2023/09/18 15:15:13;;;;;;;3.78;1.17;;;;;;;22.46;69.85;96016.66;2069020;28;20201;-74
2023/09/18 15:16:14;;;;;;;3.15;1.20;;;;;;;22.40;69.53;96020.78;2069162;28;20229;-74
2023/09/18 15:17:16;;;;;;;5.20;0.90;;;;;;;22.10;70.10;96016.75;2064303;28;20195;-74
2023/09/18 15:18:17;;;;;;;5.45;1.38;;;;;;;22.41;69.46;96016.28;2065714;28;20195;-74
2023/09/18 15:19:19;;;;;;;9.63;1.00;;;;;;;22.54;69.02;96022.03;2067905;28;20247;-74
2023/09/18 15:20:23;;;;;;;3.85;1.38;;;;;;;22.59;69.00;96017.06;2066764;28;20545;-73
2023/09/18 15:21:25;;;;;;;7.45;1.38;;;;;;;22.71;68.27;95993.66;2068677;28;20197;-74
2023/09/18 15:22:27;;;;;;;5.15;1.38;;;;;;;22.82;68.75;96005.84;2064605;28;20191;-74
2023/09/18 15:23:29;;;;;;;2.67;1.05;;;;;;;22.88;68.89;96005.22;2067453;28;20195;-74
2023/09/18 15:24:31;;;;;;;3.60;1.00;;;;;;;22.71;69.01;96017.59;2064518;28;21060;-74
2023/09/18 15:25:37;;;;;;;2.65;1.17;;;;;;;22.89;68.88;96006.84;2066741;28;20575;-74
2023/09/18 15:26:39;;;;;;;4.22;1.30;;;;;;;22.87;68.38;96005.34;2066546;28;20411;-72
2023/09/18 15:27:41;;;;;;;7.07;1.30;;;;;;;22.70;68.41;96001.81;2066883;28;20300;-72
2023/09/18 15:28:42;;;;;;;3.92;1.35;;;;;;;22.52;68.97;96004.56;2067602;28;20230;-72
2023/09/18 15:29:43;;;;;;;3.90;1.20;;;;;;;22.58;69.08;96002.09;2067071;28;20252;-72
2023/09/18 15:30:46;;;;;;;3.45;1.05;;;;;;;22.55;69.48;96007.75;2066445;28;20244;-72
2023/09/18 15:31:48;;;;;;;3.53;1.00;;;;;;;21.98;70.44;96000.22;2068302;28;20198;-72
2023/09/18 15:32:53;;;;;;;3.53;1.00;;;;;;;22.07;69.80;96001.94;2067995;28;20411;-72
2023/09/18 15:33:55;;;;;;;2.55;1.10;;;;;;;22.11;70.03;96010.44;2067796;28;20818;-72
2023/09/18 15:34:56;;;;;;;3.47;1.10;;;;;;;22.37;69.32;95999.81;2069320;28;20622;-72
2023/09/18 15:35:58;;;;;;;7.13;1.42;;;;;;;22.76;68.87;96002.00;2066863;28;20230;-72
2023/09/18 15:37:03;;;;;;;2.90;1.20;;;;;;;22.47;68.52;96005.03;2068244;28;20669;-72
2023/09/18 15:38:06;;;;;;;5.15;1.23;;;;;;;22.62;68.47;96002.59;2066474;28;20230;-72
2023/09/18 15:39:09;;;;;;;7.38;1.50;;;;;;;22.86;67.90;95996.53;2067411;28;20232;-71
2023/09/18 15:40:13;;;;;;;1.90;1.00;;;;;;;22.50;68.35;96000.22;2067944;28;20357;-71
2023/09/18 15:41:15;;;;;;;3.33;1.15;;;;;;;22.47;68.52;96007.69;2067120;28;20627;-71
2023/09/18 15:42:16;;;;;;;10.27;1.10;;;;;;;22.52;68.29;96004.56;2067828;28;20247;-71
2023/09/18 15:43:18;;;;;;;2.67;1.08;;;;;;;22.69;68.42;95994.81;2068174;28;20197;-71
2023/09/18 15:44:20;;;;;;;4.28;1.10;;;;;;;22.52;68.13;96000.06;2068685;28;20198;-71
2023/09/18 15:45:21;;;;;;;2.25;1.25;;;;;;;22.43;68.78;95998.34;2063677;28;20198;-69
2023/09/18 15:46:23;;;;;;;5.53;1.42;;;;;;;22.48;68.98;96004.03;2065297;28;20198;-70
2023/09/18 15:47:24;;;;;;;2.33;0.90;;;;;;;22.30;69.22;95998.75;2065647;28;20221;-71
2023/09/18 15:48:28;;;;;;;7.28;1.00;;;;;;;22.55;68.97;96004.22;2066721;28;20197;-73
2023/09/18 15:49:32;;;;;;;3.08;1.30;;;;;;;22.58;69.01;95993.28;2066516;28;20201;-73
2023/09/18 15:50:33;;;;;;;3.75;1.15;;;;;;;22.74;68.71;95995.16;2065306;28;20206;-72
2023/09/18 15:51:37;;;;;;;3.53;1.23;;;;;;;22.70;68.90;95996.47;2065552;28;20214;-73
2023/09/18 15:52:40;;;;;;;4.50;1.38;;;;;;;21.94;70.23;96012.97;2065011;28;20213;-73
2023/09/18 15:53:41;;;;;;;5.65;1.30;;;;;;;21.65;71.16;96003.44;2070976;28;20292;-73
2023/09/18 15:54:44;;;;;;;2.85;1.00;;;;;;;21.33;72.19;95996.84;2070045;28;20252;-73
2023/09/18 15:55:45;;;;;;;3.40;0.80;;;;;;;21.10;73.47;95991.09;2068637;28;20301;-73
2023/09/18 15:56:49;;;;;;;3.28;1.10;;;;;;;20.74;74.35;95998.19;2067847;28;20225;-73
2023/09/18 15:57:52;;;;;;;1.90;1.00;;;;;;;20.71;74.66;96000.16;2067475;28;20261;-73
2023/09/18 15:58:53;;;;;;;5.60;1.30;;;;;;;20.45;75.17;96004.41;2067240;28;20201;-73
2023/09/18 15:59:55;;;;;;;4.50;1.00;;;;;;;20.19;76.00;96003.25;2067995;28;20198;-73
2023/09/18 16:00:58;;;;;;;3.47;1.50;;;;;;;20.15;76.89;96003.66;2067127;28;20222;-72
2023/09/18 16:02:00;;;;;;;3.13;1.25;;;;;;;20.11;77.29;96005.75;2067359;28;20194;-72
2023/09/18 16:03:01;;;;;;;2.15;0.98;;;;;;;20.10;77.21;96004.13;2067715;28;20558;-72
2023/09/18 16:04:03;;;;;;;7.10;1.20;;;;;;;19.89;77.61;96001.66;2067738;28;20248;-73
2023/09/18 16:05:06;;;;;;;3.67;1.40;;;;;;;19.85;78.14;96001.09;2067269;28;20206;-74
2023/09/18 16:06:07;;;;;;;3.80;1.20;;;;;;;19.81;78.38;96007.63;2067574;28;20307;-74
2023/09/18 16:07:12;;;;;;;9.40;2.50;;;;;;;19.76;78.23;95999.25;2068842;28;20229;-74
